createdAt,value
2023-09-25T00:00:34.515Z,17.30
2023-09-25T00:03:02.767Z,17.20
2023-09-25T00:05:30.785Z,17.20
2023-09-25T00:07:57.701Z,17.10
2023-09-25T00:10:24.904Z,17.20
2023-09-25T00:12:51.905Z,17.10
2023-09-25T00:15:18.743Z,18.10
2023-09-25T00:17:45.776Z,17.20
2023-09-25T00:20:13.018Z,17.20
2023-09-25T00:22:41.122Z,17.10
2023-09-25T00:25:08.866Z,17.10
2023-09-25T00:27:35.849Z,17.20
2023-09-25T00:30:09.770Z,17.20
2023-09-25T00:32:36.914Z,17.10
2023-09-25T00:35:08.599Z,17.00
2023-09-25T00:37:36.749Z,17.10
2023-09-25T00:40:20.334Z,17.00
2023-09-25T00:42:50.240Z,17.10
2023-09-25T00:45:17.776Z,17.00
2023-09-25T00:47:45.187Z,16.90
2023-09-25T00:50:12.777Z,17.20
2023-09-25T00:52:46.674Z,17.90
2023-09-25T00:55:15.479Z,17.40
2023-09-25T00:57:44.289Z,17.00
2023-09-25T01:00:13.014Z,17.00
2023-09-25T01:02:40.946Z,17.00
2023-09-25T01:05:11.772Z,17.80
2023-09-25T01:07:39.116Z,17.00
2023-09-25T01:10:15.343Z,16.80
2023-09-25T01:12:43.009Z,16.90
2023-09-25T01:15:10.413Z,16.80
2023-09-25T01:17:37.564Z,16.90
2023-09-25T01:20:23.928Z,16.70
2023-09-25T01:22:51.486Z,16.90
2023-09-25T01:25:20.569Z,16.80
2023-09-25T01:27:48.851Z,17.70
2023-09-25T01:30:18.071Z,16.70
2023-09-25T01:32:46.609Z,16.70
2023-09-25T01:35:17.171Z,16.80
2023-09-25T01:37:46.344Z,17.40
2023-09-25T01:40:14.168Z,16.70
2023-09-25T01:42:41.462Z,16.70
2023-09-25T01:45:10.379Z,16.60
2023-09-25T01:47:37.872Z,16.70
2023-09-25T01:50:05.938Z,16.60
2023-09-25T01:52:32.690Z,16.70
2023-09-25T01:54:59.580Z,16.60
2023-09-25T01:57:27.005Z,16.60
2023-09-25T01:59:53.785Z,16.90
2023-09-25T02:02:20.536Z,16.60
2023-09-25T02:04:47.346Z,16.50
2023-09-25T02:07:16.547Z,16.50
2023-09-25T02:09:43.462Z,16.50
2023-09-25T02:12:10.313Z,16.40
2023-09-25T02:14:37.266Z,16.50
2023-09-25T02:17:04.077Z,16.60
2023-09-25T02:19:32.991Z,16.50
2023-09-25T02:21:59.810Z,16.30
2023-09-25T02:24:26.610Z,17.00
2023-09-25T02:26:53.373Z,16.40
2023-09-25T02:29:21.644Z,16.30
2023-09-25T02:31:48.443Z,17.30
2023-09-25T02:34:15.591Z,17.40
2023-09-25T02:36:42.707Z,16.40
2023-09-25T02:39:14.470Z,16.40
2023-09-25T02:41:41.327Z,17.30
2023-09-25T02:44:08.824Z,16.30
2023-09-25T02:46:35.612Z,16.40
2023-09-25T02:49:02.949Z,16.50
2023-09-25T02:51:30.048Z,16.40
2023-09-25T02:53:56.845Z,16.40
2023-09-25T02:56:23.794Z,16.40
2023-09-25T02:58:50.776Z,16.70
2023-09-25T03:01:17.752Z,16.30
2023-09-25T03:03:44.727Z,16.30
2023-09-25T03:06:11.529Z,16.20
2023-09-25T03:08:38.263Z,16.20
2023-09-25T03:11:05.023Z,16.30
2023-09-25T03:13:31.760Z,16.30
2023-09-25T03:15:58.687Z,16.70
2023-09-25T03:18:26.206Z,16.90
2023-09-25T03:20:53.002Z,16.20
2023-09-25T03:23:19.792Z,16.20
2023-09-25T03:25:46.563Z,16.40
2023-09-25T03:28:13.308Z,16.30
2023-09-25T03:30:40.217Z,16.30
2023-09-25T03:33:08.632Z,16.30
2023-09-25T03:35:35.592Z,16.20
2023-09-25T03:38:02.349Z,16.20
2023-09-25T03:40:29.410Z,16.30
2023-09-25T03:42:56.178Z,16.10
2023-09-25T03:45:25.125Z,16.20
2023-09-25T03:47:52.560Z,16.10
2023-09-25T03:50:19.436Z,16.20
2023-09-25T03:52:46.205Z,16.20
2023-09-25T03:55:12.999Z,16.20
2023-09-25T03:57:39.820Z,16.10
2023-09-25T04:00:07.941Z,16.00
2023-09-25T04:02:38.344Z,16.20
2023-09-25T04:05:05.403Z,16.00
2023-09-25T04:07:32.130Z,16.10
2023-09-25T04:09:59.591Z,16.10
2023-09-25T04:12:26.393Z,16.10
2023-09-25T04:14:54.367Z,16.90
2023-09-25T04:17:21.948Z,16.10
2023-09-25T04:19:49.628Z,16.10
2023-09-25T04:22:16.540Z,16.00
2023-09-25T04:24:43.472Z,16.00
2023-09-25T04:27:11.001Z,16.00
2023-09-25T04:29:39.744Z,16.10
2023-09-25T04:32:07.345Z,16.10
2023-09-25T04:34:36.836Z,16.00
2023-09-25T04:37:04.796Z,16.80
2023-09-25T04:39:34.148Z,16.10
2023-09-25T04:42:01.011Z,16.10
2023-09-25T04:44:28.118Z,16.20
2023-09-25T04:46:54.994Z,16.10
2023-09-25T04:49:21.885Z,16.10
2023-09-25T04:51:50.274Z,16.10
2023-09-25T04:54:18.143Z,16.10
2023-09-25T04:56:44.964Z,16.10
2023-09-25T04:59:11.689Z,16.10
2023-09-25T05:01:38.479Z,16.00
2023-09-25T05:04:05.706Z,16.20
2023-09-25T05:06:32.524Z,16.20
2023-09-25T05:08:59.318Z,16.90
2023-09-25T05:11:26.516Z,17.20
2023-09-25T05:13:53.422Z,16.10
2023-09-25T05:16:20.228Z,14.70
2023-09-25T05:18:47.249Z,17.00
2023-09-25T05:21:14.171Z,16.20
2023-09-25T05:26:07.650Z,16.30
2023-09-25T05:28:34.379Z,16.20
2023-09-25T05:31:01.290Z,16.20
2023-09-25T05:33:28.167Z,17.00
2023-09-25T05:35:56.091Z,16.10
2023-09-25T05:38:22.863Z,16.10
2023-09-25T05:40:49.648Z,16.00
2023-09-25T05:43:16.437Z,16.20
2023-09-25T05:45:44.138Z,16.30
2023-09-25T05:48:11.357Z,16.10
2023-09-25T05:50:38.648Z,16.20
2023-09-25T05:53:05.459Z,16.30
2023-09-25T05:55:32.626Z,16.20
2023-09-25T05:57:59.558Z,16.20
2023-09-25T06:00:26.492Z,16.20
2023-09-25T06:02:53.624Z,16.20
2023-09-25T06:05:20.560Z,16.30
2023-09-25T06:07:47.396Z,16.40
2023-09-25T06:10:14.393Z,16.40
2023-09-25T06:12:41.635Z,16.60
2023-09-25T06:15:13.020Z,16.40
2023-09-25T06:17:41.320Z,16.50
2023-09-25T06:20:16.528Z,16.70
2023-09-25T06:22:45.281Z,16.60
2023-09-25T06:25:12.713Z,16.50
2023-09-25T06:27:41.459Z,16.60
2023-09-25T06:30:10.791Z,16.80
2023-09-25T06:32:38.208Z,16.70
2023-09-25T06:35:07.425Z,16.70
2023-09-25T06:37:37.121Z,16.80
2023-09-25T06:40:15.437Z,16.80
2023-09-25T06:42:42.618Z,16.90
2023-09-25T06:45:09.965Z,16.90
2023-09-25T06:47:37.015Z,17.00
2023-09-25T06:50:05.268Z,17.10
2023-09-25T06:52:32.038Z,17.10
2023-09-25T06:54:58.878Z,17.00
2023-09-25T06:57:26.506Z,17.10
2023-09-25T06:59:53.879Z,17.60
2023-09-25T07:02:21.413Z,17.20
2023-09-25T07:04:48.722Z,17.30
2023-09-25T07:07:15.938Z,17.30
2023-09-25T07:09:43.526Z,18.20
2023-09-25T07:12:13.890Z,17.40
2023-09-25T07:14:40.938Z,17.40
2023-09-25T07:17:07.993Z,17.40
2023-09-25T07:19:34.729Z,17.30
2023-09-25T07:22:01.510Z,18.20
2023-09-25T07:24:28.328Z,17.50
2023-09-25T07:26:55.027Z,17.60
2023-09-25T07:29:35.133Z,17.60
2023-09-25T07:32:08.619Z,18.00
2023-09-25T07:34:35.449Z,17.70
2023-09-25T07:37:05.707Z,17.90
2023-09-25T07:39:34.468Z,17.90
2023-09-25T07:42:01.517Z,17.90
2023-09-25T07:44:28.566Z,18.20
2023-09-25T07:46:58.180Z,18.20
2023-09-25T07:49:25.273Z,18.20
2023-09-25T07:51:52.528Z,18.40
2023-09-25T07:54:20.129Z,18.30
2023-09-25T07:56:48.255Z,18.40
2023-09-25T07:59:14.995Z,18.60
2023-09-25T08:01:43.463Z,18.80
2023-09-25T08:04:10.511Z,18.60
2023-09-25T08:06:37.551Z,18.80
2023-09-25T08:09:05.005Z,18.80
2023-09-25T08:11:31.794Z,18.90
2023-09-25T08:13:58.522Z,18.90
2023-09-25T08:16:28.251Z,19.10
2023-09-25T08:18:55.282Z,19.10
2023-09-25T08:21:22.194Z,19.20
2023-09-25T08:23:49.007Z,19.30
2023-09-25T08:26:17.512Z,19.30
2023-09-25T08:28:44.358Z,19.50
2023-09-25T08:31:11.070Z,19.30
2023-09-25T08:33:37.849Z,19.30
2023-09-25T08:36:04.792Z,19.30
2023-09-25T08:38:31.568Z,19.50
2023-09-25T08:40:58.900Z,19.40
2023-09-25T08:43:27.648Z,19.20
2023-09-25T08:45:56.401Z,19.50
2023-09-25T08:48:23.428Z,19.30
2023-09-25T08:50:51.099Z,19.30
2023-09-25T08:53:19.328Z,19.40
2023-09-25T08:55:46.658Z,19.40
2023-09-25T08:58:13.420Z,19.50
2023-09-25T09:00:41.834Z,19.70
2023-09-25T09:03:09.016Z,19.60
2023-09-25T09:05:36.335Z,19.70
2023-09-25T09:08:06.574Z,19.90
2023-09-25T09:10:35.113Z,19.90
2023-09-25T09:13:03.987Z,19.90
2023-09-25T09:15:32.359Z,21.10
2023-09-25T09:17:59.875Z,20.90
2023-09-25T09:20:39.876Z,20.20
2023-09-25T09:23:10.181Z,20.10
2023-09-25T09:25:37.366Z,20.30
2023-09-25T09:28:07.274Z,20.10
2023-09-25T09:30:34.172Z,20.60
2023-09-25T09:33:00.960Z,20.00
2023-09-25T09:35:28.421Z,20.30
2023-09-25T09:37:59.240Z,20.20
2023-09-25T09:40:28.082Z,20.10
2023-09-25T09:42:55.493Z,20.20
2023-09-25T09:45:23.196Z,20.20
2023-09-25T09:47:54.065Z,20.30
2023-09-25T09:50:26.708Z,20.20
2023-09-25T09:52:54.011Z,20.60
2023-09-25T09:55:22.957Z,20.60
2023-09-25T09:57:51.281Z,21.30
2023-09-25T10:00:18.850Z,21.40
2023-09-25T10:02:48.302Z,20.60
2023-09-25T10:05:16.789Z,20.80
2023-09-25T10:08:11.726Z,20.60
2023-09-25T10:10:39.797Z,20.80
2023-09-25T10:13:16.333Z,20.80
2023-09-25T10:15:57.958Z,20.80
2023-09-25T10:18:27.621Z,20.80
2023-09-25T10:21:15.634Z,20.90
2023-09-25T10:23:50.964Z,21.40
2023-09-25T10:26:26.080Z,21.70
2023-09-25T10:29:15.531Z,21.70
2023-09-25T10:31:51.341Z,21.30
2023-09-25T10:34:18.241Z,21.20
2023-09-25T10:36:48.928Z,21.50
2023-09-25T10:39:18.857Z,21.50
2023-09-25T10:41:58.057Z,21.70
2023-09-25T10:44:26.914Z,21.70
2023-09-25T10:46:53.852Z,21.80
2023-09-25T10:49:20.731Z,21.90
2023-09-25T10:51:48.412Z,21.90
2023-09-25T10:54:15.714Z,22.20
2023-09-25T10:56:42.767Z,22.00
2023-09-25T10:59:09.567Z,22.60
2023-09-25T11:01:36.544Z,22.50
2023-09-25T11:04:04.379Z,22.30
2023-09-25T11:06:31.943Z,22.30
2023-09-25T11:09:06.606Z,22.30
2023-09-25T11:11:33.771Z,22.30
2023-09-25T11:14:00.711Z,22.60
2023-09-25T11:16:28.354Z,22.60
2023-09-25T11:19:11.845Z,23.20
2023-09-25T11:21:40.676Z,22.50
2023-09-25T11:24:11.563Z,22.50
2023-09-25T11:26:39.227Z,22.50
2023-09-25T11:29:09.836Z,22.60
2023-09-25T11:31:54.574Z,22.70
2023-09-25T11:34:27.136Z,22.80
2023-09-25T11:36:54.490Z,23.20
2023-09-25T11:39:21.361Z,23.00
2023-09-25T11:41:48.227Z,23.10
2023-09-25T11:44:15.371Z,23.10
2023-09-25T11:46:43.865Z,23.20
2023-09-25T11:49:10.942Z,23.00
2023-09-25T11:51:37.836Z,23.50
2023-09-25T11:54:05.977Z,23.30
2023-09-25T11:56:33.844Z,23.30
2023-09-25T11:59:01.402Z,23.50
2023-09-25T12:01:29.494Z,23.60
2023-09-25T12:03:56.948Z,23.50
2023-09-25T12:06:27.357Z,24.20
2023-09-25T12:08:55.381Z,23.50
2023-09-25T12:11:22.493Z,23.70
2023-09-25T12:13:50.726Z,24.00
2023-09-25T12:16:18.756Z,24.00
2023-09-25T12:18:46.231Z,24.10
2023-09-25T12:21:13.166Z,24.30
2023-09-25T12:23:40.010Z,24.50
2023-09-25T12:26:07.725Z,24.70
2023-09-25T12:28:35.727Z,24.90
2023-09-25T12:31:02.688Z,25.20
2023-09-25T12:33:29.564Z,25.20
2023-09-25T12:35:56.424Z,25.50
2023-09-25T12:38:23.278Z,25.60
2023-09-25T12:40:50.216Z,25.80
2023-09-25T12:43:17.068Z,25.90
2023-09-25T12:45:43.987Z,26.10
2023-09-25T12:48:11.164Z,26.40
2023-09-25T12:50:39.119Z,26.50
2023-09-25T12:53:06.448Z,26.60
2023-09-25T12:55:34.571Z,26.40
2023-09-25T12:58:02.067Z,26.50
2023-09-25T13:00:29.379Z,26.70
2023-09-25T13:02:56.383Z,26.80
2023-09-25T13:05:23.290Z,26.80
2023-09-25T13:07:51.104Z,26.80
2023-09-25T13:10:19.369Z,26.80
2023-09-25T13:12:46.126Z,26.80
2023-09-25T13:15:13.380Z,26.90
2023-09-25T13:17:40.286Z,26.90
2023-09-25T13:20:09.157Z,27.00
2023-09-25T13:22:38.047Z,27.00
2023-09-25T13:25:06.764Z,27.20
2023-09-25T13:27:33.976Z,27.20
2023-09-25T13:30:00.982Z,27.40
2023-09-25T13:32:27.970Z,27.40
2023-09-25T13:34:54.815Z,27.50
2023-09-25T13:37:21.867Z,27.50
2023-09-25T13:39:48.766Z,27.60
2023-09-25T13:42:15.630Z,27.80
2023-09-25T13:44:43.791Z,27.90
2023-09-25T13:47:12.305Z,27.90
2023-09-25T13:49:44.399Z,27.80
2023-09-25T13:52:12.351Z,27.80
2023-09-25T13:54:39.356Z,27.80
2023-09-25T13:57:06.466Z,28.00
2023-09-25T13:59:34.186Z,27.90
2023-09-25T14:02:01.154Z,27.90
2023-09-25T14:04:29.182Z,27.90
2023-09-25T14:06:56.507Z,27.60
2023-09-25T14:09:25.705Z,27.50
2023-09-25T14:11:54.221Z,27.50
2023-09-25T14:14:22.358Z,27.40
2023-09-25T14:16:50.193Z,27.30
2023-09-25T14:19:17.000Z,27.20
2023-09-25T14:21:43.736Z,27.00
2023-09-25T14:24:10.675Z,26.90
2023-09-25T14:26:37.417Z,26.80
2023-09-25T14:29:04.289Z,26.80
2023-09-25T14:31:30.983Z,26.70
2023-09-25T14:33:59.124Z,26.50
2023-09-25T14:36:27.215Z,26.40
2023-09-25T14:38:53.980Z,26.20
2023-09-25T14:41:20.725Z,26.30
2023-09-25T14:43:47.553Z,26.20
2023-09-25T14:46:14.546Z,26.20
2023-09-25T14:48:47.400Z,26.20
2023-09-25T14:51:17.175Z,26.20
2023-09-25T14:53:43.939Z,26.20
2023-09-25T14:56:13.215Z,26.00
2023-09-25T14:58:40.605Z,25.80
2023-09-25T15:01:09.252Z,25.90
2023-09-25T15:03:36.467Z,26.00
2023-09-25T15:06:03.427Z,26.30
2023-09-25T15:08:30.194Z,26.60
2023-09-25T15:10:57.522Z,26.60
2023-09-25T15:13:24.849Z,26.40
2023-09-25T15:15:51.784Z,26.50
2023-09-25T15:18:18.810Z,26.60
2023-09-25T15:20:45.913Z,26.60
2023-09-25T15:23:12.724Z,26.70
2023-09-25T15:25:39.661Z,26.50
2023-09-25T15:28:06.954Z,26.30
2023-09-25T15:30:34.315Z,26.00
2023-09-25T15:33:01.312Z,26.00
2023-09-25T15:35:28.633Z,26.30
2023-09-25T15:37:55.479Z,26.70
2023-09-25T15:40:24.590Z,26.90
2023-09-25T15:42:53.091Z,26.90
2023-09-25T15:45:20.940Z,26.90
2023-09-25T15:47:48.364Z,27.10
2023-09-25T15:50:15.372Z,27.00
2023-09-25T15:52:42.251Z,26.70
2023-09-25T15:55:09.450Z,26.30
2023-09-25T15:57:37.014Z,26.10
2023-09-25T16:00:06.998Z,25.90
2023-09-25T16:02:33.943Z,25.70
2023-09-25T16:05:00.993Z,25.50
2023-09-25T16:07:29.013Z,25.30
2023-09-25T16:09:56.325Z,25.50
2023-09-25T16:12:23.425Z,25.10
2023-09-25T16:14:50.232Z,25.10
2023-09-25T16:17:17.140Z,25.20
2023-09-25T16:19:43.995Z,24.80
2023-09-25T16:22:10.922Z,24.90
2023-09-25T16:24:37.870Z,24.80
2023-09-25T16:27:04.754Z,24.80
2023-09-25T16:29:31.843Z,24.70
2023-09-25T16:31:58.739Z,24.60
2023-09-25T16:34:25.617Z,24.50
2023-09-25T16:36:52.538Z,24.50
2023-09-25T16:39:19.515Z,24.40
2023-09-25T16:41:46.825Z,24.30
2023-09-25T16:44:13.623Z,24.20
2023-09-25T16:46:40.955Z,24.20
2023-09-25T16:49:08.373Z,24.10
2023-09-25T16:51:35.295Z,24.10
2023-09-25T16:54:02.132Z,24.10
2023-09-25T16:56:28.910Z,24.00
2023-09-25T16:58:55.854Z,23.90
2023-09-25T17:01:22.855Z,23.90
2023-09-25T17:03:50.209Z,23.80
2023-09-25T17:06:17.201Z,23.50
2023-09-25T17:08:43.935Z,23.60
2023-09-25T17:11:10.799Z,23.60
2023-09-25T17:13:37.552Z,23.60
2023-09-25T17:16:10.513Z,23.40
2023-09-25T17:18:37.871Z,23.40
2023-09-25T17:21:05.150Z,23.50
2023-09-25T17:23:31.995Z,23.40
2023-09-25T17:25:58.771Z,23.40
2023-09-25T17:28:25.529Z,23.30
2023-09-25T17:31:08.509Z,23.30
2023-09-25T17:33:36.337Z,23.10
2023-09-25T17:36:03.262Z,23.00
2023-09-25T17:38:32.271Z,23.20
2023-09-25T17:40:59.280Z,23.20
2023-09-25T17:43:27.161Z,23.10
2023-09-25T17:45:54.577Z,23.00
2023-09-25T17:48:21.669Z,23.10
2023-09-25T17:50:52.398Z,22.80
2023-09-25T17:53:19.856Z,22.80
2023-09-25T17:55:50.396Z,22.90
2023-09-25T17:58:29.328Z,22.90
2023-09-25T18:01:01.466Z,23.20
2023-09-25T18:03:29.714Z,22.80
2023-09-25T18:05:56.591Z,22.80
2023-09-25T18:08:24.545Z,22.80
2023-09-25T18:10:51.332Z,22.70
2023-09-25T18:13:21.149Z,22.70
2023-09-25T18:15:52.199Z,22.70
2023-09-25T18:18:19.441Z,22.60
2023-09-25T18:20:46.348Z,22.60
2023-09-25T18:23:13.281Z,22.60
2023-09-25T18:25:42.198Z,22.80
2023-09-25T18:28:09.206Z,23.00
2023-09-25T18:30:36.706Z,22.70
2023-09-25T18:33:09.174Z,22.60
2023-09-25T18:35:36.816Z,22.50
2023-09-25T18:38:04.417Z,23.00
2023-09-25T18:40:33.398Z,22.50
2023-09-25T18:43:02.838Z,22.90
2023-09-25T18:45:29.697Z,22.20
2023-09-25T18:47:56.649Z,22.30
2023-09-25T18:50:23.528Z,22.40
2023-09-25T18:52:50.370Z,22.30
2023-09-25T18:55:17.217Z,22.30
2023-09-25T18:57:43.978Z,22.60
2023-09-25T19:00:11.143Z,22.20
2023-09-25T19:02:38.068Z,22.20
2023-09-25T19:05:05.223Z,22.20
2023-09-25T19:07:33.002Z,22.20
2023-09-25T19:10:04.438Z,22.90
2023-09-25T19:12:31.389Z,22.20
2023-09-25T19:14:58.167Z,22.70
2023-09-25T19:17:25.879Z,22.20
2023-09-25T19:19:52.811Z,22.90
2023-09-25T19:22:19.661Z,21.90
2023-09-25T19:24:46.568Z,22.00
2023-09-25T19:27:13.415Z,22.00
2023-09-25T19:29:40.240Z,22.00
2023-09-25T19:32:07.095Z,21.90
2023-09-25T19:34:34.069Z,22.00
2023-09-25T19:37:00.942Z,21.90
2023-09-25T19:39:27.638Z,21.80
2023-09-25T19:41:54.395Z,22.10
2023-09-25T19:44:21.112Z,21.90
2023-09-25T19:46:48.016Z,21.80
2023-09-25T19:49:14.884Z,22.50
2023-09-25T19:51:41.676Z,21.80
2023-09-25T19:54:08.584Z,22.00
2023-09-25T19:56:35.384Z,21.90
2023-09-25T19:59:02.187Z,21.80
2023-09-25T20:01:29.359Z,21.70
2023-09-25T20:03:56.911Z,22.50
2023-09-25T20:06:24.307Z,22.10
2023-09-25T20:08:51.347Z,21.80
2023-09-25T20:11:18.282Z,21.50
2023-09-25T20:13:45.236Z,21.70
2023-09-25T20:16:12.199Z,21.70
2023-09-25T20:18:39.141Z,21.70
2023-09-25T20:21:05.989Z,21.60
2023-09-25T20:23:32.776Z,22.50
2023-09-25T20:25:59.585Z,21.60
2023-09-25T20:28:26.529Z,21.40
2023-09-25T20:30:53.336Z,21.60
2023-09-25T20:33:20.273Z,22.00
2023-09-25T20:35:47.064Z,21.70
2023-09-25T20:38:13.796Z,21.40
2023-09-25T20:40:40.642Z,21.60
2023-09-25T20:43:07.676Z,21.60
2023-09-25T20:45:34.389Z,21.50
2023-09-25T20:48:01.240Z,21.50
2023-09-25T20:50:29.244Z,21.50
2023-09-25T20:52:56.637Z,21.60
2023-09-25T20:55:23.660Z,21.50
2023-09-25T20:57:51.174Z,21.40
2023-09-25T21:00:18.705Z,21.30
2023-09-25T21:02:45.597Z,21.30
2023-09-25T21:05:13.231Z,21.40
2023-09-25T21:07:40.107Z,21.40
2023-09-25T21:10:07.399Z,21.50
2023-09-25T21:12:34.709Z,21.40
2023-09-25T21:15:01.858Z,21.70
2023-09-25T21:17:28.736Z,21.50
2023-09-25T21:19:55.574Z,22.10
2023-09-25T21:22:22.427Z,21.30
2023-09-25T21:24:50.278Z,21.10
2023-09-25T21:27:18.740Z,21.10
2023-09-25T21:29:46.068Z,21.30
2023-09-25T21:32:14.427Z,21.10
2023-09-25T21:34:41.607Z,21.20
2023-09-25T21:37:08.597Z,21.90
2023-09-25T21:39:35.518Z,21.10
2023-09-25T21:42:04.069Z,21.10
2023-09-25T21:44:31.794Z,21.10
2023-09-25T21:46:58.887Z,21.10
2023-09-25T21:49:26.366Z,21.00
2023-09-25T21:51:53.448Z,20.90
2023-09-25T21:54:20.381Z,20.90
2023-09-25T21:56:47.608Z,21.20
2023-09-25T21:59:14.480Z,21.40
2023-09-25T22:01:41.438Z,20.60
2023-09-25T22:04:09.843Z,20.60
2023-09-25T22:06:36.915Z,20.50
2023-09-25T22:09:06.159Z,20.60
2023-09-25T22:11:33.154Z,20.60
2023-09-25T22:14:00.568Z,20.40
2023-09-25T22:16:27.565Z,20.90
2023-09-25T22:18:54.713Z,21.20
2023-09-25T22:21:21.537Z,20.60
2023-09-25T22:23:48.445Z,20.30
2023-09-25T22:26:15.335Z,20.30
2023-09-25T22:28:43.997Z,20.40
2023-09-25T22:31:18.704Z,20.00
2023-09-25T22:33:47.590Z,20.10
2023-09-25T22:36:14.995Z,20.10
2023-09-25T22:38:42.133Z,20.20
2023-09-25T22:41:09.043Z,20.00
2023-09-25T22:43:35.901Z,19.90
2023-09-25T22:46:02.820Z,19.60
2023-09-25T22:48:31.432Z,19.80
2023-09-25T22:50:58.523Z,19.70
2023-09-25T22:53:25.323Z,19.90
2023-09-25T22:55:52.605Z,19.60
2023-09-25T22:58:19.960Z,19.70
2023-09-25T23:00:51.765Z,19.60
2023-09-25T23:03:19.550Z,19.50
2023-09-25T23:05:47.585Z,19.70
2023-09-25T23:08:14.524Z,19.60
2023-09-25T23:10:41.372Z,19.60
2023-09-25T23:13:08.296Z,19.50
2023-09-25T23:15:35.092Z,19.50
2023-09-25T23:18:02.001Z,19.30
2023-09-25T23:20:29.516Z,19.20
2023-09-25T23:22:56.650Z,19.80
2023-09-25T23:25:28.043Z,19.40
2023-09-25T23:27:55.440Z,19.30
2023-09-25T23:30:23.103Z,19.30
2023-09-25T23:32:51.916Z,19.20
2023-09-25T23:35:19.547Z,19.00
2023-09-25T23:37:49.849Z,19.10
2023-09-25T23:40:20.031Z,21.30
2023-09-25T23:42:47.319Z,19.10
2023-09-25T23:45:15.141Z,19.10
2023-09-25T23:47:42.851Z,19.00
2023-09-25T23:50:11.595Z,18.90
2023-09-25T23:52:40.111Z,19.00
2023-09-25T23:55:08.170Z,18.90
2023-09-25T23:57:39.568Z,19.00
